Terminal Aerodrome Forecast
Issued by NWS

Home | Current Version | Previous Version | Graphics & Text | Print | Product List | Glossary On
Versions: 1 2 3 4 5 6 7 8 9 10 11 12 13 14 15 16 17 18 19 20 21 22 23 24 25
000
FTUS43 KICT 202057 AAC
TAFHUT
TAF AMD
KHUT 202057Z 2021/2118 01016G20KT P6SM BKN025 OVC035
     FM210100 03006KT P6SM SCT020 BKN035
     FM210900 03004KT 4SM BR SCT020
     FM211400 06006KT P6SM SCT050=

USA.gov is the U.S. government's official web portal to all federal, state and local government web resources and services.